Toboyne, Pennsylvania
Current Conditions -  °F | °C
As of 4:53 PM on Sunday 23 Nov 2014 (Local Time) from KRYT Reporting Station
Clear Clear  
Wind Chill: 45°   Ceiling: Unl
Heat Index: 45°   Visibility: 10mi
Dew Point: 25°   Wind: 0mph
Humidity: 46%   Direction: NA
Pressure: 30.04"   Gusts: NA
Location:  40.2719°N, 77.5899°W
Report Text: KRYT 232153Z AUTO 00000KT 10SM CLR 07/M04 A3004 RMK AO2 SLP178 T00721039 $
Loading
Personal Weather Stations






























Interactive Weather Map New forecast layout! Learn more

10-Day Weather Forecast

Advertisements
Track Severe Weather on mobile